This is the latest recevied weather packets stored in our database for station/object K2ATL. If no packets are shown the sender has not sent any weather packets the latest 10 day(s).
| Time | Temp. | Humidity | Pressure | Rain* | Wind** | Luminosity | Snow |
|---|---|---|---|---|---|---|---|
| 1777923954 | 22.78° C | 38% | 1100.1 hPa | 0 mm | - | 825 W/m² | - |
| 1777923649 | 23.33° C | 40% | 1100.3 hPa | 0 mm | - | 648 W/m² | - |
| 1777923346 | 22.22° C | 41% | 1100.4 hPa | 0 mm | - | 821 W/m² | - |
| 1777923045 | 22.78° C | 39% | 1100.5 hPa | 0 mm | - | 756 W/m² | - |
| 1777922743 | 21.11° C | 42% | 1100.7 hPa | 0 mm | - | 723 W/m² | - |
| 1777922441 | 20° C | 44% | 1100.6 hPa | 0 mm | - | 474 W/m² | - |
| 1777922138 | 22.22° C | 41% | 1100.6 hPa | 0 mm | - | 568 W/m² | - |
| 1777921834 | 22.78° C | 39% | 1100.7 hPa | 0 mm | - | 542 W/m² | - |
| 1777921531 | 22.22° C | 40% | 1100.6 hPa | 0 mm | - | 828 W/m² | - |
| 1777921227 | 21.11° C | 42% | 1100.8 hPa | 0 mm | - | 711 W/m² | - |
| 1777920924 | 20.56° C | 42% | 1100.6 hPa | 0 mm | - | 759 W/m² | - |
| 1777920620 | 21.67° C | 41% | 1100.7 hPa | 0 mm | - | 927 W/m² | - |
| 1777920316 | 21.11° C | 41% | 1100.8 hPa | 0 mm | - | 929 W/m² | - |
| 1777920012 | 20° C | 41% | 1100.9 hPa | 0 mm | - | 906 W/m² | - |
| 1777919709 | 22.22° C | 41% | 1100.8 hPa | 0 mm | - | 894 W/m² | - |
| 1777919408 | 22.78° C | 41% | 1101 hPa | 0 mm | - | 938 W/m² | - |
| 1777919103 | 21.67° C | 40% | 1100.9 hPa | 0 mm | - | 908 W/m² | - |
| 1777918801 | 21.11° C | 45% | 1101 hPa | 0 mm | - | 944 W/m² | - |
| 1777918498 | 20.56° C | 45% | 1101.1 hPa | 0 mm | - | 856 W/m² | - |
| 1777918196 | 21.67° C | 40% | 1101.4 hPa | 0 mm | - | 878 W/m² | - |
| 1777917895 | 21.11° C | 44% | 1101.5 hPa | 0 mm | - | 897 W/m² | - |
| 1777917593 | 18.33° C | 47% | 1101.5 hPa | 0 mm | - | 923 W/m² | - |
| 1777917289 | 20° C | 46% | 1101.5 hPa | 0 mm | - | 884 W/m² | - |
| 1777916987 | 20.56° C | 45% | 1101.5 hPa | 0 mm | - | 880 W/m² | - |
| 1777916684 | 18.89° C | 48% | 1101.7 hPa | 0 mm | - | 972 W/m² | - |
* Rain latest hour (hover to see other rain measurements)
** Current wind speed in m/s (hover to see current wind gust speed)